Time;durP1;ratioP1;P1;durP2;ratioP2;P2;SDS_P1;SDS_P2;PMS_P1;PMS_P2;Temp;Humidity;BMP_temperature;BMP_pressure;BME280_temperature;BME280_humidity;BME280_pressure;Samples;Min_cycle;Max_cycle;Signal;HPM_P1;HPM_P2
2022/04/02 00:01:39;;;;;;;12.73;5.30;;;;;;;-0.30;70.52;100715.84;4986196;28;20054;-40
2022/04/02 00:04:07;;;;;;;9.85;4.65;;;;;;;-0.30;70.75;100720.94;4987319;28;20464;-45
2022/04/02 00:06:34;;;;;;;14.02;5.38;;;;;;;-0.31;70.64;100719.19;4987853;28;20049;-44
2022/04/02 00:09:02;;;;;;;14.63;5.10;;;;;;;-0.31;70.30;100725.94;4987100;28;20538;-46
2022/04/02 00:11:29;;;;;;;11.43;4.57;;;;;;;-0.34;70.31;100724.13;4987313;28;20046;-40
2022/04/02 00:13:56;;;;;;;13.23;4.78;;;;;;;-0.37;70.33;100726.53;4984082;28;20404;-47
2022/04/02 00:16:22;;;;;;;12.52;4.47;;;;;;;-0.40;70.00;100726.34;4987876;28;20042;-42
2022/04/02 00:18:50;;;;;;;12.20;5.35;;;;;;;-0.42;70.48;100725.38;4987920;28;20069;-47
2022/04/02 00:21:17;;;;;;;12.82;5.28;;;;;;;-0.45;70.26;100721.00;4983759;28;20070;-41
2022/04/02 00:23:46;;;;;;;18.83;5.18;;;;;;;-0.47;71.00;100726.81;4986984;28;20057;-43
2022/04/02 00:26:18;;;;;;;13.10;5.60;;;;;;;-0.48;70.66;100720.00;4983497;28;20073;-42
2022/04/02 00:28:45;;;;;;;15.73;6.38;;;;;;;-0.49;70.58;100719.09;4986908;28;20058;-43
2022/04/02 00:31:13;;;;;;;16.15;6.13;;;;;;;-0.47;70.34;100721.72;4986150;28;20485;-43
2022/04/02 00:33:43;;;;;;;14.30;5.28;;;;;;;-0.50;70.89;100724.09;4982918;28;20073;-42
2022/04/02 00:36:11;;;;;;;11.63;5.32;;;;;;;-0.50;70.38;100726.66;5000174;28;20038;-45
2022/04/02 00:38:39;;;;;;;11.57;5.45;;;;;;;-0.51;70.53;100733.41;5002607;28;20456;-43
2022/04/02 00:41:07;;;;;;;14.55;5.82;;;;;;;-0.52;70.23;100729.13;4988803;28;20069;-45
2022/04/02 00:43:36;;;;;;;13.77;5.07;;;;;;;-0.53;70.84;100738.41;4979146;28;20058;-49
2022/04/02 00:46:09;;;;;;;12.02;5.47;;;;;;;-0.56;70.58;100728.09;4991067;28;20133;-41
2022/04/02 00:48:37;;;;;;;11.75;5.32;;;;;;;-0.57;70.73;100725.47;4987541;28;20046;-41
2022/04/02 00:51:07;;;;;;;13.77;5.97;;;;;;;-0.59;70.90;100727.03;4986231;28;20049;-43
2022/04/02 00:53:38;;;;;;;14.55;5.57;;;;;;;-0.61;70.91;100724.41;4983193;28;20065;-43
2022/04/02 00:56:06;;;;;;;11.55;5.13;;;;;;;-0.61;71.06;100732.03;4979593;28;20043;-40
2022/04/02 00:58:33;;;;;;;13.75;5.00;;;;;;;-0.61;70.83;100728.63;4990170;28;20054;-43
2022/04/02 01:00:59;;;;;;;10.60;5.05;;;;;;;-0.63;71.01;100726.00;4997794;28;20491;-43
2022/04/02 01:03:27;;;;;;;12.38;5.18;;;;;;;-0.63;70.90;100726.00;4991764;28;20049;-41
2022/04/02 01:05:54;;;;;;;13.35;5.43;;;;;;;-0.63;70.59;100731.09;4986025;28;20046;-42
2022/04/02 01:08:21;;;;;;;14.98;6.28;;;;;;;-0.65;70.95;100722.47;4987965;28;20042;-42
2022/04/02 01:10:48;;;;;;;14.68;5.90;;;;;;;-0.65;70.96;100722.47;4982399;28;20053;-43
2022/04/02 01:13:16;;;;;;;12.35;6.00;;;;;;;-0.67;70.94;100724.94;4985095;28;20050;-45
2022/04/02 01:15:43;;;;;;;12.23;5.68;;;;;;;-0.69;70.92;100724.00;4986130;28;20051;-44
2022/04/02 01:18:10;;;;;;;13.23;5.93;;;;;;;-0.70;70.62;100714.63;4986724;28;20054;-41
2022/04/02 01:20:37;;;;;;;12.23;4.57;;;;;;;-0.73;71.54;100718.66;4985535;28;20046;-44
2022/04/02 01:23:04;;;;;;;13.68;5.45;;;;;;;-0.74;71.35;100720.34;4987731;28;20050;-42
2022/04/02 01:25:34;;;;;;;16.40;6.07;;;;;;;-0.73;71.58;100719.53;4987742;28;20054;-44
2022/04/02 01:28:02;;;;;;;13.60;5.50;;;;;;;-0.74;71.12;100722.00;4985803;28;20053;-45
2022/04/02 01:30:30;;;;;;;12.45;5.05;;;;;;;-0.76;71.64;100718.47;4981313;28;20112;-43
2022/04/02 01:32:58;;;;;;;15.40;5.38;;;;;;;-0.79;71.18;100715.00;4990776;28;20046;-43
2022/04/02 01:35:25;;;;;;;18.95;6.13;;;;;;;-0.82;71.46;100719.91;4988679;28;20054;-43
2022/04/02 01:37:52;;;;;;;16.27;5.57;;;;;;;-0.85;70.95;100717.19;4985997;28;20068;-42
2022/04/02 01:40:20;;;;;;;17.17;5.70;;;;;;;-0.88;71.13;100718.72;4985165;28;20055;-44
2022/04/02 01:42:46;;;;;;;13.30;5.97;;;;;;;-0.92;71.31;100717.66;4989529;28;20453;-42
2022/04/02 01:45:14;;;;;;;12.35;5.70;;;;;;;-0.93;70.65;100718.44;4988905;28;20537;-41
2022/04/02 01:47:41;;;;;;;14.80;5.93;;;;;;;-0.96;70.79;100719.16;4981746;28;20126;-42
2022/04/02 01:50:10;;;;;;;13.48;6.68;;;;;;;-0.96;71.33;100721.72;4985513;28;20528;-44
2022/04/02 01:52:37;;;;;;;13.60;5.50;;;;;;;-0.99;71.31;100720.63;4988236;28;20096;-41
2022/04/02 01:55:05;;;;;;;15.18;5.78;;;;;;;-0.99;71.10;100710.47;4984315;28;20078;-42
2022/04/02 01:57:32;;;;;;;13.60;5.40;;;;;;;-0.98;71.39;100714.78;4991210;28;20100;-44
2022/04/02 01:59:59;;;;;;;13.57;4.90;;;;;;;-0.96;71.55;100711.53;4983672;28;20058;-42
2022/04/02 02:02:26;;;;;;;13.13;5.78;;;;;;;-0.95;71.05;100708.19;4986617;28;20066;-43
2022/04/02 02:04:53;;;;;;;11.05;5.72;;;;;;;-0.94;71.88;100712.47;4985720;28;20115;-43
2022/04/02 02:07:20;;;;;;;14.90;5.85;;;;;;;-0.90;70.99;100711.00;4983965;28;20054;-41
2022/04/02 02:09:46;;;;;;;12.90;5.53;;;;;;;-0.91;71.79;100709.25;4985897;28;20046;-44
2022/04/02 02:12:15;;;;;;;15.82;5.55;;;;;;;-0.91;71.15;100712.66;4982105;28;20058;-42
2022/04/02 02:14:42;;;;;;;12.55;4.85;;;;;;;-0.91;71.18;100709.25;4986921;28;20077;-46
2022/04/02 02:17:09;;;;;;;13.63;6.28;;;;;;;-0.92;71.48;100716.00;4989785;28;20058;-49
2022/04/02 02:19:35;;;;;;;18.63;5.93;;;;;;;-0.93;71.00;100711.72;4982785;28;20043;-45
2022/04/02 02:22:02;;;;;;;16.58;6.18;;;;;;;-0.93;71.62;100715.91;4989092;28;20105;-42
2022/04/02 02:24:29;;;;;;;15.15;5.05;;;;;;;-0.93;71.27;100718.44;4990931;28;20070;-40
2022/04/02 02:26:55;;;;;;;14.77;4.65;;;;;;;-0.93;72.05;100715.91;4993135;28;20046;-42
2022/04/02 02:29:22;;;;;;;14.35;6.35;;;;;;;-0.95;71.46;100723.44;4987118;28;20101;-44
2022/04/02 02:31:49;;;;;;;10.68;5.53;;;;;;;-0.96;71.12;100720.81;4990247;28;20058;-45
2022/04/02 02:37:02;;;;;;;15.13;5.03;;;;;;;-1.04;71.35;100718.72;4984297;28;20046;-46
2022/04/02 02:39:28;;;;;;;14.02;5.63;;;;;;;-1.07;71.37;100716.03;4987268;28;20109;-42
2022/04/02 02:41:55;;;;;;;18.45;6.28;;;;;;;-1.09;71.11;100714.16;4989086;28;20042;-43
2022/04/02 02:44:22;;;;;;;13.50;5.53;;;;;;;-1.12;71.18;100714.88;4990351;28;20054;-43
2022/04/02 02:46:48;;;;;;;13.10;5.43;;;;;;;-1.11;71.05;100710.69;4990607;28;20521;-44
2022/04/02 02:49:15;;;;;;;14.55;5.65;;;;;;;-1.09;71.49;100714.16;4988275;28;21026;-45
2022/04/02 02:51:42;;;;;;;8.80;3.80;;;;;;;-1.06;72.50;100705.06;4986588;28;20080;-42
2022/04/02 02:54:08;;;;;;;14.95;5.85;;;;;;;-1.00;72.59;100716.34;4986823;28;20062;-47
2022/04/02 02:56:35;;;;;;;12.13;4.72;;;;;;;-0.99;73.04;100710.47;4984918;28;20577;-41
2022/04/02 02:59:02;;;;;;;12.90;5.90;;;;;;;-0.96;72.87;100703.00;4984341;28;20104;-45
2022/04/02 03:01:29;;;;;;;16.02;5.35;;;;;;;-0.93;72.13;100711.72;4987685;28;20594;-44
2022/04/02 03:03:55;;;;;;;14.27;5.70;;;;;;;-0.90;72.42;100713.53;4987815;28;20053;-43
2022/04/02 03:06:22;;;;;;;14.75;5.65;;;;;;;-0.89;72.27;100701.66;4983503;28;20112;-40
2022/04/02 03:08:49;;;;;;;15.38;6.35;;;;;;;-0.88;72.13;100714.47;4988103;28;20119;-46
2022/04/02 03:11:16;;;;;;;15.50;6.28;;;;;;;-0.89;72.32;100715.28;4986216;28;20505;-48
2022/04/02 03:13:44;;;;;;;15.40;5.45;;;;;;;-0.88;72.31;100716.16;4988674;28;20055;-47
2022/04/02 03:16:10;;;;;;;13.25;5.93;;;;;;;-0.91;71.90;100714.34;4985136;28;20046;-44
2022/04/02 03:18:37;;;;;;;18.83;6.30;;;;;;;-0.92;71.82;100712.56;4983680;28;20045;-43
2022/04/02 03:21:04;;;;;;;18.15;5.47;;;;;;;-0.95;71.71;100712.41;4987583;28;20089;-46
2022/04/02 03:23:32;;;;;;;17.85;6.22;;;;;;;-0.99;71.92;100711.34;4990024;28;20038;-43
2022/04/02 03:25:58;;;;;;;15.68;5.88;;;;;;;-1.02;71.62;100705.25;4987991;28;20050;-43
2022/04/02 03:28:25;;;;;;;14.63;5.80;;;;;;;-1.02;71.90;100707.78;4984097;28;20548;-42
2022/04/02 03:30:51;;;;;;;16.05;5.82;;;;;;;-1.04;72.17;100702.59;4984584;28;20108;-42
2022/04/02 03:33:20;;;;;;;17.77;6.32;;;;;;;-1.06;71.80;100699.09;4989519;28;20050;-45
2022/04/02 03:35:46;;;;;;;13.77;6.70;;;;;;;-1.07;72.42;100698.25;4984716;28;20054;-42
2022/04/02 03:38:13;;;;;;;15.73;5.80;;;;;;;-1.05;72.07;100705.91;4988394;28;20421;-42
2022/04/02 03:40:41;;;;;;;15.75;6.72;;;;;;;-1.06;72.12;100710.16;4990469;28;20045;-43
2022/04/02 03:43:08;;;;;;;14.68;6.45;;;;;;;-1.06;72.28;100706.72;4992091;28;20541;-42
2022/04/02 03:45:35;;;;;;;18.02;5.95;;;;;;;-1.08;72.41;100700.69;4982888;28;20050;-43
2022/04/02 03:48:01;;;;;;;18.48;5.65;;;;;;;-1.08;72.12;100705.78;4990158;28;20054;-41
2022/04/02 03:50:28;;;;;;;16.65;5.97;;;;;;;-1.09;72.47;100698.91;4988970;28;20046;-46
2022/04/02 03:52:55;;;;;;;21.85;6.55;;;;;;;-1.07;72.52;100697.34;4991764;28;20544;-43
2022/04/02 03:55:22;;;;;;;14.45;5.38;;;;;;;-1.08;73.04;100706.63;4986012;28;20402;-43
2022/04/02 03:57:49;;;;;;;17.98;5.78;;;;;;;-1.08;72.55;100698.16;4991473;28;20047;-42
2022/04/02 04:00:18;;;;;;;14.27;6.22;;;;;;;-1.09;72.98;100702.34;4996956;28;20055;-43
2022/04/02 04:02:45;;;;;;;19.05;5.88;;;;;;;-1.09;73.24;100704.00;4983768;28;20497;-41
2022/04/02 04:05:12;;;;;;;16.77;6.43;;;;;;;-1.09;72.64;100704.88;4985135;28;20393;-42
2022/04/02 04:07:39;;;;;;;19.45;6.47;;;;;;;-1.10;72.42;100705.69;4984027;28;20054;-43
2022/04/02 04:10:06;;;;;;;14.75;6.03;;;;;;;-1.11;72.81;100710.69;4988818;28;20060;-46
2022/04/02 04:12:34;;;;;;;15.00;6.18;;;;;;;-1.13;72.63;100700.44;4998343;28;20706;-43
2022/04/02 04:15:01;;;;;;;15.95;6.70;;;;;;;-1.15;72.65;100699.44;4981685;28;20046;-44
2022/04/02 04:17:27;;;;;;;14.32;6.38;;;;;;;-1.18;72.63;100699.31;4983729;28;20050;-47
2022/04/02 04:19:54;;;;;;;15.13;6.90;;;;;;;-1.21;72.73;100704.22;4988312;28;20509;-42
2022/04/02 04:22:20;;;;;;;15.98;6.38;;;;;;;-1.21;72.12;100710.16;4986767;28;20121;-43
2022/04/02 04:24:47;;;;;;;17.08;6.15;;;;;;;-1.23;72.30;100706.66;4983992;28;20050;-45
2022/04/02 04:27:14;;;;;;;15.35;6.38;;;;;;;-1.23;72.57;100710.88;4985506;28;20062;-43
2022/04/02 04:29:40;;;;;;;19.38;6.68;;;;;;;-1.26;72.55;100711.56;4982418;28;20100;-48
2022/04/02 04:32:07;;;;;;;18.65;6.68;;;;;;;-1.28;72.12;100713.16;4984489;28;20081;-44
2022/04/02 04:34:34;;;;;;;16.85;6.72;;;;;;;-1.29;72.24;100716.47;4985098;28;20054;-43
2022/04/02 04:37:01;;;;;;;15.60;6.82;;;;;;;-1.33;72.62;100717.09;4986694;28;20050;-41
2022/04/02 04:39:28;;;;;;;14.43;5.63;;;;;;;-1.35;71.86;100714.47;4990235;28;20042;-43
2022/04/02 04:41:55;;;;;;;17.50;5.93;;;;;;;-1.35;72.24;100719.56;4984684;28;20041;-43
2022/04/02 04:44:21;;;;;;;16.95;7.15;;;;;;;-1.38;72.55;100716.88;4985415;28;20077;-45
2022/04/02 04:46:48;;;;;;;18.95;6.63;;;;;;;-1.38;72.30;100721.94;4984853;28;20057;-41
2022/04/02 04:49:15;;;;;;;20.10;6.43;;;;;;;-1.41;71.83;100721.75;4988187;28;20050;-42
2022/04/02 04:51:42;;;;;;;18.67;6.63;;;;;;;-1.42;72.43;100715.78;4992205;28;20057;-45
2022/04/02 04:54:09;;;;;;;19.55;7.32;;;;;;;-1.42;72.03;100720.00;4992824;28;20104;-41
2022/04/02 04:56:36;;;;;;;15.07;5.90;;;;;;;-1.43;72.09;100715.69;4989808;28;20065;-42
2022/04/02 04:59:03;;;;;;;16.83;6.43;;;;;;;-1.45;71.82;100719.84;4984254;28;20090;-43
2022/04/02 05:01:29;;;;;;;16.88;7.55;;;;;;;-1.46;72.90;100723.16;4982753;28;20132;-43
2022/04/02 05:03:57;;;;;;;17.52;6.75;;;;;;;-1.49;72.40;100725.53;4986955;28;20058;-42
2022/04/02 05:06:24;;;;;;;17.55;6.10;;;;;;;-1.52;72.91;100722.81;4988676;28;20047;-41
2022/04/02 05:08:50;;;;;;;18.17;7.78;;;;;;;-1.57;72.72;100738.69;4986073;28;20401;-44
2022/04/02 05:11:17;;;;;;;19.48;7.95;;;;;;;-1.58;72.30;100729.28;4985932;28;20146;-42
2022/04/02 05:13:45;;;;;;;17.50;7.70;;;;;;;-1.61;72.73;100731.66;4983819;28;20101;-41
2022/04/02 05:16:12;;;;;;;17.55;5.80;;;;;;;-1.62;72.08;100737.50;4987547;28;20104;-43
2022/04/02 05:18:40;;;;;;;17.25;7.28;;;;;;;-1.61;72.87;100744.38;4989861;28;20039;-44
2022/04/02 05:21:07;;;;;;;18.73;7.82;;;;;;;-1.58;72.76;100739.44;4988648;28;20069;-45
2022/04/02 05:23:38;;;;;;;19.08;7.65;;;;;;;-1.55;73.25;100739.63;4992376;28;20724;-44
2022/04/02 05:26:05;;;;;;;19.10;7.57;;;;;;;-1.53;73.08;100742.25;4985116;28;20042;-43
2022/04/02 05:28:32;;;;;;;14.75;5.43;;;;;;;-1.52;73.33;100744.00;4984616;28;20070;-43
2022/04/02 05:30:59;;;;;;;20.20;7.38;;;;;;;-1.46;72.82;100753.63;4981045;28;20184;-49
2022/04/02 05:33:26;;;;;;;19.13;7.10;;;;;;;-1.42;72.95;100750.47;4985065;28;20078;-44
2022/04/02 05:36:06;;;;;;;12.52;5.55;;;;;;;-1.39;73.17;100743.03;4988028;28;20049;-44
2022/04/02 05:38:33;;;;;;;17.90;6.43;;;;;;;-1.35;73.11;100752.59;4988561;28;20802;-45
2022/04/02 05:41:00;;;;;;;16.58;5.60;;;;;;;-1.31;73.44;100748.56;4986345;28;20050;-42
2022/04/02 05:43:27;;;;;;;16.15;6.43;;;;;;;-1.28;73.13;100748.75;4978367;28;20054;-45
2022/04/02 05:46:12;;;;;;;13.05;5.22;;;;;;;-1.26;72.91;100752.25;4983766;28;20053;-42
2022/04/02 05:48:39;;;;;;;18.25;7.13;;;;;;;-1.23;73.48;100754.06;4987976;28;20054;-43
2022/04/02 05:51:05;;;;;;;19.88;6.72;;;;;;;-1.21;73.34;100757.59;4989878;28;21559;-44
2022/04/02 05:53:32;;;;;;;20.10;7.25;;;;;;;-1.20;72.85;100756.81;4983239;28;20054;-41
2022/04/02 05:55:59;;;;;;;16.75;5.90;;;;;;;-1.18;72.90;100757.78;4984507;28;20108;-44
2022/04/02 05:58:26;;;;;;;17.17;7.07;;;;;;;-1.16;72.92;100773.97;4984787;28;20113;-44
2022/04/02 06:00:53;;;;;;;20.27;7.60;;;;;;;-1.15;73.11;100769.78;4989876;28;20047;-44
2022/04/02 06:03:20;;;;;;;18.48;6.57;;;;;;;-1.13;72.64;100771.63;4987877;28;20069;-41
2022/04/02 06:05:48;;;;;;;14.48;6.43;;;;;;;-1.11;72.83;100767.50;4985104;28;20050;-41
2022/04/02 06:08:16;;;;;;;21.90;7.68;;;;;;;-1.09;72.71;100776.09;4987933;28;20043;-46
2022/04/02 06:10:44;;;;;;;15.82;7.32;;;;;;;-1.06;72.72;100771.19;5000421;28;20051;-44
2022/04/02 06:13:12;;;;;;;16.77;6.65;;;;;;;-1.04;72.54;100774.66;4987073;28;20104;-43
2022/04/02 06:15:39;;;;;;;12.52;4.60;;;;;;;-0.99;72.79;100772.38;4981602;28;20084;-43
2022/04/02 06:18:07;;;;;;;17.73;6.13;;;;;;;-0.95;73.13;100773.44;4988341;28;20576;-45
2022/04/02 06:20:33;;;;;;;13.25;5.88;;;;;;;-0.91;72.82;100771.16;4982481;28;20050;-47
2022/04/02 06:23:00;;;;;;;17.38;5.93;;;;;;;-0.88;73.17;100770.44;4985943;28;20046;-42
2022/04/02 06:25:26;;;;;;;15.10;6.03;;;;;;;-0.83;73.31;100774.13;4984690;28;20453;-46
2022/04/02 06:28:11;;;;;;;18.75;7.25;;;;;;;-0.79;72.95;100776.06;4990360;28;20149;-45
2022/04/02 06:30:37;;;;;;;17.42;6.63;;;;;;;-0.75;72.82;100782.16;4985333;28;20540;-44
2022/04/02 06:33:22;;;;;;;17.13;6.63;;;;;;;-0.70;72.74;100784.97;4988311;28;20174;-47
2022/04/02 06:35:48;;;;;;;16.90;6.57;;;;;;;-0.66;72.61;100786.91;4988729;28;20050;-43
2022/04/02 06:38:16;;;;;;;19.65;6.75;;;;;;;-0.63;72.48;100784.53;4984194;28;20050;-45
2022/04/02 06:40:43;;;;;;;16.45;7.47;;;;;;;-0.58;72.86;100790.72;4987939;28;20116;-47
2022/04/02 06:43:10;;;;;;;15.45;5.43;;;;;;;-0.55;73.22;100790.91;4985936;28;20046;-43
2022/04/02 06:45:37;;;;;;;15.63;5.07;;;;;;;-0.46;73.28;100794.75;4989348;28;20043;-45
2022/04/02 06:48:04;;;;;;;13.65;4.82;;;;;;;-0.39;73.44;100801.91;4989821;28;20073;-44
2022/04/02 06:50:31;;;;;;;15.52;5.30;;;;;;;-0.34;74.08;100805.56;4988559;28;20732;-46
2022/04/02 06:52:58;;;;;;;15.75;5.97;;;;;;;-0.26;72.98;100814.50;4986057;28;20100;-45
2022/04/02 06:55:32;;;;;;;13.68;5.43;;;;;;;-0.18;72.94;100806.41;4986359;28;20050;-44
2022/04/02 06:58:00;;;;;;;17.92;7.10;;;;;;;-0.10;72.68;100810.22;4984337;28;20090;-45
2022/04/02 07:00:26;;;;;;;14.18;6.07;;;;;;;-0.06;72.85;100799.44;4981982;28;20498;-42
2022/04/02 07:02:53;;;;;;;9.52;4.55;;;;;;;0.01;73.18;100807.38;4986393;28;20097;-43
2022/04/02 07:05:20;;;;;;;15.90;7.03;;;;;;;0.01;72.51;100812.47;4989553;28;20042;-46
2022/04/02 07:07:49;;;;;;;15.68;6.22;;;;;;;0.08;72.36;100817.09;4987146;28;20049;-44
2022/04/02 07:10:16;;;;;;;20.25;6.93;;;;;;;0.36;72.63;100824.50;4986199;28;20051;-44
2022/04/02 07:12:43;;;;;;;24.70;8.82;;;;;;;1.26;72.30;100830.59;4983473;28;20058;-47
2022/04/02 07:15:10;;;;;;;40.15;12.25;;;;;;;2.33;73.23;100830.25;4984020;28;20046;-43
2022/04/02 07:17:37;;;;;;;30.50;11.25;;;;;;;3.32;70.76;100829.19;4982655;28;20116;-43
2022/04/02 07:20:06;;;;;;;38.90;16.27;;;;;;;4.37;70.20;100840.78;4985050;28;20054;-47
2022/04/02 07:22:34;;;;;;;24.98;9.93;;;;;;;5.40;68.93;100829.59;4980294;28;20137;-48
2022/04/02 07:25:01;;;;;;;18.55;8.05;;;;;;;6.29;66.96;100834.75;4985123;28;20050;-50
2022/04/02 07:27:29;;;;;;;12.52;6.28;;;;;;;7.07;64.72;100841.91;4988499;28;20501;-44
2022/04/02 07:29:57;;;;;;;15.40;7.18;;;;;;;7.66;63.04;100841.50;4984084;28;20509;-44
2022/04/02 07:32:24;;;;;;;17.52;6.85;;;;;;;8.34;63.18;100848.09;4985894;28;20050;-44
2022/04/02 07:34:51;;;;;;;16.27;6.53;;;;;;;8.98;60.59;100850.94;4986508;28;20816;-48
2022/04/02 07:37:35;;;;;;;14.93;6.47;;;;;;;9.54;59.78;100856.13;4988446;28;20552;-49
2022/04/02 07:45:51;;;;;;;12.75;6.13;;;;;;;10.90;53.20;100853.41;5023216;27;20418;-47
2022/04/02 07:48:20;;;;;;;12.77;6.18;;;;;;;10.96;54.34;100866.44;5024885;28;20112;-50
2022/04/02 07:50:48;;;;;;;11.43;5.95;;;;;;;10.78;54.49;100862.81;5028800;28;20049;-53
2022/04/02 07:53:20;;;;;;;13.13;5.93;;;;;;;10.70;54.93;100868.78;5031336;28;20140;-48
2022/04/02 07:55:56;;;;;;;13.30;6.53;;;;;;;10.75;53.90;100873.16;5022872;28;20045;-51
2022/04/02 07:58:30;;;;;;;12.48;5.90;;;;;;;11.03;54.67;100867.34;5024122;28;20057;-50
2022/04/02 08:01:01;;;;;;;11.40;6.13;;;;;;;11.12;53.79;100866.56;5025191;28;20057;-46
2022/04/02 08:03:30;;;;;;;12.90;5.95;;;;;;;10.95;53.97;100869.91;5034459;28;20049;-46
2022/04/02 08:05:57;;;;;;;13.65;5.78;;;;;;;10.90;53.91;100868.97;5022986;28;20103;-47
2022/04/02 08:08:25;;;;;;;13.73;6.28;;;;;;;11.08;54.15;100864.81;5026018;28;20064;-49
2022/04/02 08:10:52;;;;;;;11.10;5.97;;;;;;;11.55;53.70;100866.88;5028669;28;20045;-47
2022/04/02 08:13:20;;;;;;;12.00;6.35;;;;;;;12.20;52.14;100871.56;5027097;28;20057;-45
2022/04/02 08:15:49;;;;;;;11.35;6.45;;;;;;;12.72;51.01;100875.16;5020937;28;20111;-47
2022/04/02 08:18:20;;;;;;;13.43;5.50;;;;;;;13.31;51.19;100869.09;5020546;28;20077;-48
2022/04/02 08:20:49;;;;;;;11.23;4.78;;;;;;;13.85;48.68;100869.91;5022123;28;20049;-45
2022/04/02 08:23:16;;;;;;;11.93;5.25;;;;;;;14.27;47.89;100874.94;5020322;28;20049;-48
2022/04/02 08:25:50;;;;;;;7.93;4.60;;;;;;;14.63;46.49;100875.59;5021885;28;20044;-49
2022/04/02 08:28:32;;;;;;;11.68;5.38;;;;;;;15.08;45.75;100870.97;5017686;28;20053;-45
2022/04/02 08:31:09;;;;;;;9.38;4.38;;;;;;;15.53;45.09;100874.06;5012966;28;20065;-46
2022/04/02 08:44:51;;;;;;;10.88;6.15;;;;;;;16.62;40.75;100882.31;5030303;28;20410;-51
2022/04/02 08:50:10;;;;;;;6.65;3.90;;;;;;;17.30;39.37;100892.66;5043491;27;20521;-50
2022/04/02 08:55:26;;;;;;;6.97;3.92;;;;;;;18.03;40.63;100879.97;5039201;28;20390;-51
2022/04/02 09:00:37;;;;;;;8.63;3.88;;;;;;;18.46;37.98;100886.06;5016105;27;20395;-48
2022/04/02 09:03:35;;;;;;;7.50;4.30;;;;;;;18.61;38.39;100897.97;4996929;28;20070;-49
2022/04/02 09:09:15;;;;;;;8.35;4.43;;;;;;;19.17;36.17;100888.78;5009701;28;20410;-50
2022/04/02 09:47:57;;;;;;;2.22;0.82;;;;;;;17.18;35.93;100907.69;5027767;27;20433;-46
2022/04/02 09:50:26;;;;;;;3.38;1.15;;;;;;;16.57;35.91;100907.69;5015929;28;20056;-55
2022/04/02 09:53:15;;;;;;;4.05;1.13;;;;;;;15.66;35.38;100906.13;5011169;28;20697;-49
2022/04/02 09:56:02;;;;;;;;;;;;;;;14.96;37.97;100909.31;5017989;28;20073;-49
2022/04/02 10:09:15;;;;;;;4.60;1.50;;;;;;;12.83;40.35;100913.28;5003565;28;20430;-49
2022/04/02 10:11:59;;;;;;;3.90;2.03;;;;;;;12.43;41.11;100909.72;4989485;28;20099;-48
2022/04/02 10:14:28;;;;;;;6.68;1.92;;;;;;;12.75;42.54;100915.88;4998838;28;20058;-49
2022/04/02 10:17:01;;;;;;;3.13;1.20;;;;;;;13.00;41.29;100915.91;4998230;28;20061;-45
2022/04/02 10:19:30;;;;;;;2.80;1.35;;;;;;;12.63;40.55;100905.47;4997596;28;20545;-47
2022/04/02 10:22:07;;;;;;;3.63;1.17;;;;;;;12.22;41.28;100905.31;4999525;28;20057;-48
2022/04/02 10:24:40;;;;;;;4.75;1.50;;;;;;;11.76;41.48;100901.59;4999438;28;20050;-48
2022/04/02 10:27:11;;;;;;;3.55;2.17;;;;;;;11.81;41.37;100910.28;4998809;28;20445;-46
2022/04/02 10:40:07;;;;;;;2.63;0.65;;;;;;;13.14;41.41;100896.88;5045308;28;20409;-47
2022/04/02 10:45:12;;;;;;;1.67;1.17;;;;;;;13.56;39.56;100892.53;5022156;27;20421;-49
2022/04/02 10:47:47;;;;;;;2.53;1.75;;;;;;;13.56;37.16;100889.94;5000738;28;20053;-51
2022/04/02 10:50:19;;;;;;;2.50;1.75;;;;;;;13.30;38.45;100897.72;5003271;28;20046;-50
2022/04/02 10:52:51;;;;;;;2.38;2.03;;;;;;;12.93;39.44;100893.38;5028640;28;20046;-49
2022/04/02 10:55:22;;;;;;;2.97;1.77;;;;;;;12.73;38.61;100892.50;4996450;28;20100;-48
2022/04/02 10:57:48;;;;;;;2.22;2.03;;;;;;;12.87;39.32;100883.81;5002048;28;20050;-53
2022/04/02 11:00:16;;;;;;;3.00;1.13;;;;;;;13.10;39.58;100886.47;5001571;28;21092;-51
2022/04/02 11:05:20;;;;;;;1.85;0.80;;;;;;;13.46;39.51;100877.75;5022089;27;20396;-48
2022/04/02 11:07:49;;;;;;;1.98;0.95;;;;;;;13.50;39.77;100887.34;4992064;28;20050;-45
2022/04/02 11:10:18;;;;;;;1.15;0.50;;;;;;;13.62;38.52;100889.06;4995740;28;20050;-47
2022/04/02 11:12:46;;;;;;;1.75;0.70;;;;;;;13.77;38.64;100888.16;5001540;28;20058;-50
2022/04/02 11:23:19;;;;;;;2.60;0.75;;;;;;;13.26;37.69;100881.25;5008403;28;20049;-49
2022/04/02 11:25:50;;;;;;;1.27;0.65;;;;;;;12.76;38.92;100889.03;5012606;28;20053;-45
2022/04/02 11:28:20;;;;;;;4.38;0.95;;;;;;;12.39;39.22;100891.56;5010407;28;20513;-44
2022/04/02 11:31:07;;;;;;;1.92;0.75;;;;;;;11.73;38.39;100887.75;5010130;28;20048;-45
2022/04/02 11:33:49;;;;;;;7.38;1.00;;;;;;;11.34;40.24;100887.50;5010054;28;20124;-46
2022/04/02 11:36:16;;;;;;;3.03;0.90;;;;;;;10.99;41.35;100892.41;5010687;28;20061;-47
2022/04/02 11:39:03;;;;;;;3.83;1.25;;;;;;;10.65;41.74;100889.47;5008361;28;20050;-48
2022/04/02 11:49:39;;;;;;;8.10;1.40;;;;;;;10.45;42.88;100890.13;5052580;27;20411;-44
2022/04/02 11:52:12;;;;;;;2.63;0.70;;;;;;;10.55;43.89;100901.44;5020996;28;20057;-48
2022/04/02 12:00:13;;;;;;;4.20;2.85;;;;;;;10.88;44.63;100888.81;5029549;27;20414;-45
2022/04/02 12:02:41;;;;;;;4.60;3.28;;;;;;;11.36;44.10;100890.94;5018668;28;20053;-49
2022/04/02 12:05:11;;;;;;;2.78;2.28;;;;;;;11.63;42.63;100882.50;5023691;28;20068;-45
2022/04/02 12:07:46;;;;;;;4.53;2.58;;;;;;;11.52;42.21;100887.59;5012287;28;20058;-48
2022/04/02 12:10:36;;;;;;;2.90;2.67;;;;;;;11.29;43.18;100901.25;5017637;28;20057;-45
2022/04/02 12:13:07;;;;;;;2.70;2.17;;;;;;;10.92;42.40;100908.75;5048466;28;20058;-44
2022/04/02 12:15:34;;;;;;;2.38;2.17;;;;;;;10.60;43.68;100914.47;5000865;28;20058;-46
2022/04/02 12:18:06;;;;;;;2.92;2.42;;;;;;;10.43;44.28;100903.88;4999927;28;20494;-50
2022/04/02 12:20:38;;;;;;;5.18;3.10;;;;;;;10.41;44.75;100903.84;5001624;28;20049;-44
2022/04/02 12:23:20;;;;;;;2.83;2.63;;;;;;;10.34;44.77;100907.22;5003228;28;20046;-44
2022/04/02 12:25:57;;;;;;;3.00;2.38;;;;;;;10.34;43.97;100913.25;5000276;28;20070;-46
2022/04/02 12:28:24;;;;;;;2.88;2.60;;;;;;;10.49;45.44;100902.25;5001163;28;20497;-47
2022/04/02 12:30:52;;;;;;;2.78;2.45;;;;;;;10.77;45.07;100907.72;5004311;28;20050;-47
2022/04/02 12:33:21;;;;;;;2.00;0.60;;;;;;;11.04;44.24;100903.66;5001207;28;20422;-47
2022/04/02 12:35:59;;;;;;;4.50;2.30;;;;;;;11.29;43.58;100901.25;5002396;28;20061;-49
2022/04/02 12:38:29;;;;;;;3.33;3.03;;;;;;;11.67;43.26;100901.53;4993587;28;20053;-48
2022/04/02 12:40:57;;;;;;;2.50;2.30;;;;;;;11.74;41.71;100905.91;4997927;28;20108;-46
2022/04/02 12:43:41;;;;;;;1.40;1.30;;;;;;;11.47;41.14;100906.59;5001193;28;20053;-51
2022/04/02 12:46:21;;;;;;;2.63;1.27;;;;;;;11.26;41.38;100911.63;4998633;28;20097;-47
2022/04/02 12:48:48;;;;;;;1.50;1.40;;;;;;;10.90;41.16;100913.91;5003898;28;20181;-45
2022/04/02 12:51:17;;;;;;;1.35;1.25;;;;;;;10.47;41.48;100910.84;5003415;28;20046;-46
2022/04/02 12:53:47;;;;;;;1.50;1.40;;;;;;;10.17;42.17;100913.06;5001989;28;20094;-47
2022/04/02 13:01:33;;;;;;;0.63;0.20;;;;;;;9.59;43.59;100919.16;5039440;28;20387;-44
2022/04/02 13:17:10;;;;;;;1.52;1.42;;;;;;;10.22;43.80;100898.44;5048755;27;20398;-48
2022/04/02 13:28:17;;;;;;;1.80;1.02;;;;;;;10.88;42.38;100894.88;5066005;28;21597;-46
2022/04/02 16:00:24;;;;;;;0.40;0.30;;;;;;;8.26;46.19;100923.63;5027168;27;20406;-47
2022/04/02 16:02:51;;;;;;;5.20;0.55;;;;;;;8.25;46.70;100919.31;5003939;28;20077;-44
2022/04/02 16:05:21;;;;;;;1.75;0.30;;;;;;;8.22;46.47;100926.16;5002062;28;20077;-44
2022/04/02 16:08:13;;;;;;;0.65;0.30;;;;;;;8.14;45.24;100922.50;5037832;28;20042;-48
2022/04/02 16:10:43;;;;;;;0.30;0.10;;;;;;;8.16;46.69;100927.72;5030099;28;20712;-45
2022/04/02 16:13:21;;;;;;;1.27;0.38;;;;;;;8.08;45.49;100930.13;5006918;28;20054;-45
2022/04/02 16:16:07;;;;;;;0.63;0.30;;;;;;;8.00;44.68;100939.44;4986437;28;20042;-46
2022/04/02 16:18:35;;;;;;;0.60;0.25;;;;;;;8.07;46.84;100946.47;5018052;28;20126;-45
2022/04/02 16:21:04;;;;;;;2.08;0.73;;;;;;;8.04;45.61;100941.22;4980309;28;20077;-43